JAI12W VOCL-VOMM
Flight info
| Callsign | JAI12W |
|---|---|
| Flight time | N/A |
| Altitude | 31000 |
| Route | VOCL/28 CLC J16 CCB W114 NOPES DCT BUTLA |
| Aircraft | B738/M-SDE2E3FGHIRWXY/LB1 |
Departure
| Time | N/A |
|---|---|
| Airport | Calicut International Airport (VOCL) |
Arrival
| Time | 2026-04-24 07:22 |
|---|---|
| Airport | Chennai International Airport (VOMM) |
| Time | Latitude | Longitude | Altitude | Speed | Heading |
|---|---|---|---|---|---|
| 2026-04-24 06:28 | 11.06180 | 76.86908 | 26415 ft | 432 kts | 98° |
| 2026-04-24 06:28 | 11.05698 | 76.89925 | 26751 ft | 434 kts | 98° |
| 2026-04-24 06:28 | 11.05218 | 76.92933 | 27080 ft | 436 kts | 98° |
| 2026-04-24 06:29 | 11.04727 | 76.96004 | 27400 ft | 438 kts | 98° |
| 2026-04-24 06:29 | 11.04327 | 76.99056 | 27680 ft | 439 kts | 92° |
| 2026-04-24 06:29 | 11.04325 | 77.02156 | 28182 ft | 435 kts | 84° |
| 2026-04-24 06:29 | 11.04803 | 77.05154 | 28688 ft | 430 kts | 75° |
| 2026-04-24 06:30 | 11.05798 | 77.08007 | 29066 ft | 430 kts | 65° |
| 2026-04-24 06:30 | 11.07159 | 77.10546 | 29536 ft | 427 kts | 58° |
| 2026-04-24 06:30 | 11.08763 | 77.12973 | 29971 ft | 425 kts | 56° |
| 2026-04-24 06:30 | 11.10430 | 77.15469 | 30307 ft | 425 kts | 57° |
| 2026-04-24 06:31 | 11.12064 | 77.17981 | 30728 ft | 423 kts | 57° |
| 2026-04-24 06:31 | 11.13691 | 77.20481 | 30928 ft | 424 kts | 57° |
| 2026-04-24 06:31 | 11.15314 | 77.22954 | 30939 ft | 427 kts | 57° |
| 2026-04-24 06:32 | 11.18621 | 77.27973 | 30939 ft | 422 kts | 57° |
| 2026-04-24 06:32 | 11.21886 | 77.32926 | 30939 ft | 422 kts | 57° |
| 2026-04-24 06:33 | 11.25150 | 77.37873 | 30939 ft | 423 kts | 57° |
| 2026-04-24 06:33 | 11.28418 | 77.42826 | 30939 ft | 423 kts | 57° |
| 2026-04-24 06:34 | 11.31694 | 77.47774 | 30939 ft | 422 kts | 56° |
| 2026-04-24 06:34 | 11.34979 | 77.52698 | 30939 ft | 422 kts | 56° |
| 2026-04-24 06:35 | 11.38269 | 77.57639 | 30931 ft | 422 kts | 56° |
| 2026-04-24 06:35 | 11.41527 | 77.62534 | 30923 ft | 422 kts | 56° |
| 2026-04-24 06:36 | 11.44823 | 77.67489 | 30917 ft | 422 kts | 57° |
| 2026-04-24 06:36 | 11.48109 | 77.72430 | 30913 ft | 422 kts | 57° |
| 2026-04-24 06:37 | 11.51401 | 77.77385 | 30912 ft | 422 kts | 57° |
| 2026-04-24 06:37 | 11.54675 | 77.82313 | 30912 ft | 422 kts | 57° |
| 2026-04-24 06:38 | 11.57959 | 77.87261 | 30912 ft | 422 kts | 57° |
| 2026-04-24 06:38 | 11.61242 | 77.92208 | 30912 ft | 422 kts | 57° |
| 2026-04-24 06:39 | 11.64376 | 77.96936 | 30912 ft | 422 kts | 57° |
| 2026-04-24 06:39 | 11.67702 | 78.01987 | 30912 ft | 422 kts | 57° |
| 2026-04-24 06:40 | 11.70968 | 78.06947 | 30912 ft | 422 kts | 57° |
| 2026-04-24 06:40 | 11.74233 | 78.11908 | 30912 ft | 422 kts | 57° |
| 2026-04-24 06:41 | 11.77488 | 78.16856 | 30912 ft | 422 kts | 57° |
| 2026-04-24 06:41 | 11.80729 | 78.21784 | 30912 ft | 422 kts | 57° |
| 2026-04-24 06:42 | 11.83993 | 78.26749 | 30912 ft | 422 kts | 57° |
| 2026-04-24 06:42 | 11.87582 | 78.31426 | 30912 ft | 423 kts | 50° |
| 2026-04-24 06:43 | 11.91408 | 78.35995 | 30912 ft | 423 kts | 51° |
| 2026-04-24 06:43 | 11.95185 | 78.40591 | 30912 ft | 422 kts | 51° |
| 2026-04-24 06:44 | 11.98955 | 78.45164 | 30912 ft | 422 kts | 51° |
| 2026-04-24 06:44 | 12.02721 | 78.49739 | 30912 ft | 422 kts | 51° |
| 2026-04-24 06:45 | 12.06413 | 78.54225 | 30912 ft | 422 kts | 51° |
| 2026-04-24 06:45 | 12.10223 | 78.58858 | 30912 ft | 422 kts | 51° |
| 2026-04-24 06:46 | 12.13955 | 78.63396 | 30912 ft | 423 kts | 51° |
| 2026-04-24 06:46 | 12.17631 | 78.67870 | 30912 ft | 422 kts | 51° |
| 2026-04-24 06:47 | 12.21394 | 78.72451 | 30912 ft | 422 kts | 51° |
| 2026-04-24 06:47 | 12.25155 | 78.77032 | 30907 ft | 423 kts | 51° |
| 2026-04-24 06:48 | 12.28912 | 78.81611 | 30902 ft | 422 kts | 51° |
| 2026-04-24 06:48 | 12.32676 | 78.86201 | 30896 ft | 422 kts | 51° |
| 2026-04-24 06:49 | 12.36439 | 78.90791 | 30891 ft | 423 kts | 51° |
| 2026-04-24 06:49 | 12.40205 | 78.95388 | 30886 ft | 423 kts | 51° |
| 2026-04-24 06:50 | 12.43975 | 78.99991 | 30885 ft | 423 kts | 51° |
| 2026-04-24 06:50 | 12.47746 | 79.04598 | 30885 ft | 423 kts | 51° |
| 2026-04-24 06:51 | 12.51505 | 79.09193 | 30885 ft | 422 kts | 51° |
| 2026-04-24 06:51 | 12.55239 | 79.13759 | 30243 ft | 417 kts | 51° |
| 2026-04-24 06:51 | 12.57086 | 79.16018 | 29733 ft | 410 kts | 51° |
| 2026-04-24 06:52 | 12.58895 | 79.18231 | 29168 ft | 405 kts | 50° |
| 2026-04-24 06:52 | 12.60673 | 79.20407 | 28609 ft | 400 kts | 50° |
| 2026-04-24 06:52 | 12.62462 | 79.22598 | 28042 ft | 396 kts | 50° |
| 2026-04-24 06:52 | 12.64195 | 79.24720 | 27490 ft | 391 kts | 50° |
| 2026-04-24 06:53 | 12.65929 | 79.26845 | 26934 ft | 387 kts | 50° |
| 2026-04-24 06:53 | 12.67650 | 79.28953 | 26378 ft | 383 kts | 50° |
| 2026-04-24 06:53 | 12.69341 | 79.31025 | 25831 ft | 380 kts | 50° |
| 2026-04-24 06:53 | 12.71010 | 79.33070 | 25287 ft | 376 kts | 50° |
| 2026-04-24 06:54 | 12.72667 | 79.35102 | 24580 ft | 378 kts | 49° |
| 2026-04-24 06:54 | 12.74363 | 79.37182 | 23891 ft | 379 kts | 49° |
| 2026-04-24 06:54 | 12.76042 | 79.39242 | 23314 ft | 379 kts | 49° |
| 2026-04-24 06:54 | 12.77726 | 79.41307 | 22748 ft | 376 kts | 49° |
| 2026-04-24 06:55 | 12.79384 | 79.43343 | 22197 ft | 372 kts | 49° |
| 2026-04-24 06:55 | 12.81031 | 79.45364 | 21652 ft | 368 kts | 49° |
| 2026-04-24 06:55 | 12.82642 | 79.47344 | 21234 ft | 361 kts | 50° |
| 2026-04-24 06:55 | 12.84117 | 79.49377 | 20992 ft | 350 kts | 55° |
| 2026-04-24 06:56 | 12.85314 | 79.51522 | 20743 ft | 341 kts | 63° |
| 2026-04-24 06:56 | 12.86190 | 79.53751 | 20262 ft | 339 kts | 68° |
| 2026-04-24 06:56 | 12.87010 | 79.55988 | 19823 ft | 335 kts | 67° |
| 2026-04-24 06:56 | 12.87856 | 79.58196 | 19429 ft | 330 kts | 66° |
| 2026-04-24 06:57 | 12.88683 | 79.60371 | 19186 ft | 327 kts | 67° |
| 2026-04-24 06:57 | 12.89508 | 79.62566 | 18937 ft | 329 kts | 67° |
| 2026-04-24 06:57 | 12.90324 | 79.64742 | 18691 ft | 331 kts | 67° |
| 2026-04-24 06:57 | 12.91147 | 79.66941 | 18405 ft | 324 kts | 67° |
| 2026-04-24 06:58 | 12.91942 | 79.69070 | 18029 ft | 319 kts | 67° |
| 2026-04-24 06:58 | 12.92730 | 79.71181 | 17626 ft | 316 kts | 67° |
| 2026-04-24 06:58 | 12.93506 | 79.73263 | 17221 ft | 313 kts | 67° |
| 2026-04-24 06:58 | 12.94284 | 79.75352 | 16813 ft | 311 kts | 67° |
| 2026-04-24 06:59 | 12.95047 | 79.77404 | 16411 ft | 308 kts | 67° |
| 2026-04-24 06:59 | 12.95803 | 79.79436 | 16011 ft | 305 kts | 67° |
| 2026-04-24 06:59 | 12.96554 | 79.81456 | 15618 ft | 302 kts | 67° |
| 2026-04-24 06:59 | 12.97302 | 79.83468 | 15221 ft | 300 kts | 67° |
| 2026-04-24 07:00 | 12.98040 | 79.85454 | 14830 ft | 298 kts | 67° |
| 2026-04-24 07:00 | 12.98773 | 79.87427 | 14441 ft | 296 kts | 67° |
| 2026-04-24 07:00 | 12.99500 | 79.89385 | 14056 ft | 294 kts | 67° |
| 2026-04-24 07:00 | 13.00221 | 79.91326 | 13673 ft | 292 kts | 67° |
| 2026-04-24 07:01 | 13.00942 | 79.93270 | 13289 ft | 290 kts | 67° |
| 2026-04-24 07:01 | 13.01660 | 79.95204 | 12906 ft | 288 kts | 68° |
| 2026-04-24 07:01 | 13.02369 | 79.97115 | 12528 ft | 286 kts | 68° |
| 2026-04-24 07:01 | 13.03063 | 79.98988 | 12158 ft | 284 kts | 68° |
| 2026-04-24 07:02 | 13.03776 | 80.00909 | 11788 ft | 294 kts | 68° |
| 2026-04-24 07:02 | 13.04511 | 80.02889 | 11383 ft | 301 kts | 68° |
| 2026-04-24 07:02 | 13.05252 | 80.04890 | 10985 ft | 298 kts | 67° |
| 2026-04-24 07:02 | 13.05985 | 80.06871 | 10592 ft | 295 kts | 67° |
| 2026-04-24 07:03 | 13.06707 | 80.08820 | 10204 ft | 293 kts | 67° |
| 2026-04-24 07:03 | 13.07426 | 80.10763 | 9818 ft | 290 kts | 67° |
| 2026-04-24 07:03 | 13.08137 | 80.12685 | 9434 ft | 288 kts | 67° |
| 2026-04-24 07:03 | 13.08854 | 80.14619 | 9047 ft | 286 kts | 67° |
| 2026-04-24 07:04 | 13.09557 | 80.16521 | 8666 ft | 284 kts | 67° |
| 2026-04-24 07:04 | 13.10254 | 80.18404 | 8290 ft | 283 kts | 67° |
| 2026-04-24 07:04 | 13.10950 | 80.20286 | 7913 ft | 281 kts | 67° |
| 2026-04-24 07:04 | 13.11635 | 80.22131 | 7542 ft | 278 kts | 70° |
| 2026-04-24 07:05 | 13.12315 | 80.23965 | 7170 ft | 275 kts | 70° |
| 2026-04-24 07:05 | 13.12992 | 80.25804 | 6883 ft | 269 kts | 70° |
| 2026-04-24 07:05 | 13.13652 | 80.27543 | 6695 ft | 261 kts | 69° |
| 2026-04-24 07:05 | 13.14334 | 80.29288 | 6239 ft | 263 kts | 69° |
| 2026-04-24 07:06 | 13.15010 | 80.31027 | 5810 ft | 264 kts | 70° |
| 2026-04-24 07:06 | 13.15693 | 80.32756 | 5578 ft | 257 kts | 68° |
| 2026-04-24 07:06 | 13.16401 | 80.34404 | 5373 ft | 250 kts | 68° |
| 2026-04-24 07:06 | 13.17096 | 80.36016 | 5221 ft | 240 kts | 69° |
| 2026-04-24 07:07 | 13.17475 | 80.37634 | 4964 ft | 233 kts | 96° |
| 2026-04-24 07:07 | 13.16865 | 80.39095 | 4800 ft | 221 kts | 135° |
| 2026-04-24 07:07 | 13.14384 | 80.40682 | 4583 ft | 200 kts | 149° |
| 2026-04-24 07:08 | 13.13203 | 80.41392 | 4433 ft | 193 kts | 149° |
| 2026-04-24 07:08 | 13.11971 | 80.41890 | 4151 ft | 194 kts | 177° |
| 2026-04-24 07:08 | 13.10712 | 80.41466 | 3871 ft | 194 kts | 222° |
| 2026-04-24 07:08 | 13.09775 | 80.40553 | 3713 ft | 187 kts | 222° |
| 2026-04-24 07:09 | 13.08742 | 80.39712 | 3394 ft | 190 kts | 219° |
| 2026-04-24 07:09 | 13.07732 | 80.38844 | 3145 ft | 187 kts | 229° |
| 2026-04-24 07:09 | 13.07078 | 80.37726 | 2951 ft | 181 kts | 244° |
| 2026-04-24 07:09 | 13.06535 | 80.36604 | 2871 ft | 166 kts | 241° |
| 2026-04-24 07:10 | 13.06054 | 80.35569 | 2548 ft | 163 kts | 246° |
| 2026-04-24 07:10 | 13.05631 | 80.34503 | 2276 ft | 156 kts | 247° |
| 2026-04-24 07:10 | 13.05244 | 80.33487 | 2353 ft | 153 kts | 248° |
| 2026-04-24 07:10 | 13.04876 | 80.32508 | 2308 ft | 138 kts | 248° |
| 2026-04-24 07:11 | 13.04532 | 80.31592 | 2315 ft | 139 kts | 248° |
| 2026-04-24 07:11 | 13.04191 | 80.30683 | 2226 ft | 133 kts | 247° |
| 2026-04-24 07:11 | 13.03853 | 80.29765 | 2161 ft | 139 kts | 248° |
| 2026-04-24 07:11 | 13.03517 | 80.28857 | 2327 ft | 132 kts | 248° |
| 2026-04-24 07:12 | 13.03211 | 80.28006 | 1732 ft | 139 kts | 249° |
| 2026-04-24 07:12 | 13.02878 | 80.26983 | 1645 ft | 146 kts | 250° |
| 2026-04-24 07:12 | 13.02642 | 80.26196 | 2481 ft | 107 kts | 251° |
| 2026-04-24 07:12 | 13.02369 | 80.25244 | 2392 ft | 159 kts | 253° |
| 2026-04-24 07:13 | 13.02212 | 80.24094 | 3066 ft | 175 kts | 283° |
| 2026-04-24 07:13 | 13.02917 | 80.23097 | 3269 ft | 193 kts | 330° |
| 2026-04-24 07:13 | 13.04156 | 80.22280 | 3744 ft | 225 kts | 322° |
| 2026-04-24 07:13 | 13.05385 | 80.21291 | 4303 ft | 217 kts | 318° |
| 2026-04-24 07:14 | 13.06549 | 80.20325 | 3900 ft | 222 kts | 319° |
| 2026-04-24 07:14 | 13.07731 | 80.19362 | 3839 ft | 213 kts | 320° |
| 2026-04-24 07:14 | 13.08878 | 80.18399 | 3717 ft | 213 kts | 315° |
| 2026-04-24 07:14 | 13.09935 | 80.17318 | 3653 ft | 223 kts | 314° |
| 2026-04-24 07:15 | 13.11101 | 80.16183 | 3729 ft | 239 kts | 316° |
| 2026-04-24 07:15 | 13.12591 | 80.15402 | 4029 ft | 253 kts | 0° |
| 2026-04-24 07:15 | 13.14248 | 80.15931 | 3823 ft | 252 kts | 43° |
| 2026-04-24 07:15 | 13.15077 | 80.17432 | 3415 ft | 244 kts | 86° |
| 2026-04-24 07:16 | 13.14842 | 80.19112 | 3088 ft | 237 kts | 115° |
| 2026-04-24 07:16 | 13.13897 | 80.20439 | 2858 ft | 230 kts | 131° |
| 2026-04-24 07:16 | 13.12923 | 80.21751 | 2545 ft | 231 kts | 129° |
| 2026-04-24 07:16 | 13.11904 | 80.23038 | 2149 ft | 234 kts | 130° |
| 2026-04-24 07:17 | 13.10878 | 80.24320 | 1800 ft | 234 kts | 131° |
| 2026-04-24 07:17 | 13.09950 | 80.25668 | 1857 ft | 240 kts | 123° |
| 2026-04-24 07:17 | 13.09101 | 80.27148 | 1802 ft | 235 kts | 121° |
| 2026-04-24 07:17 | 13.08341 | 80.28631 | 1853 ft | 236 kts | 119° |
| 2026-04-24 07:18 | 13.07603 | 80.30141 | 1908 ft | 240 kts | 118° |
| 2026-04-24 07:18 | 13.06630 | 80.31460 | 1913 ft | 230 kts | 154° |
| 2026-04-24 07:18 | 13.05127 | 80.31433 | 1736 ft | 226 kts | 213° |
| 2026-04-24 07:18 | 13.04086 | 80.30301 | 1748 ft | 222 kts | 240° |
| 2026-04-24 07:19 | 13.03521 | 80.28857 | 1663 ft | 210 kts | 248° |
| 2026-04-24 07:19 | 13.03360 | 80.28421 | 1678 ft | 204 kts | 248° |
| 2026-04-24 07:19 | 13.03205 | 80.28007 | 1691 ft | 199 kts | 248° |
| 2026-04-24 07:19 | 13.02708 | 80.26755 | 1699 ft | 179 kts | 246° |
| 2026-04-24 07:20 | 13.02287 | 80.25641 | 1707 ft | 169 kts | 250° |
| 2026-04-24 07:20 | 13.01971 | 80.24484 | 1387 ft | 159 kts | 255° |
| 2026-04-24 07:20 | 13.01831 | 80.23907 | 1281 ft | 142 kts | 246° |
| 2026-04-24 07:20 | 13.01525 | 80.23243 | 987 ft | 135 kts | 238° |
| 2026-04-24 07:21 | 13.01067 | 80.22411 | 687 ft | 141 kts | 246° |
| 2026-04-24 07:21 | 13.00738 | 80.21477 | 657 ft | 141 kts | 246° |
| 2026-04-24 07:21 | 13.00394 | 80.20576 | 492 ft | 136 kts | 246° |
| 2026-04-24 07:21 | 13.00183 | 80.20001 | 401 ft | 148 kts | 246° |
| 2026-04-24 07:22 | 12.99827 | 80.19055 | 249 ft | 139 kts | 245° |
| 2026-04-24 07:22 | 12.99495 | 80.18160 | 64 ft | 131 kts | 245° |
| 2026-04-24 07:22 | 12.99226 | 80.17457 | 60 ft | 80 kts | 248° |
| 2026-04-24 07:22 | 12.99084 | 80.17080 | 60 ft | 40 kts | 246° |
| 2026-04-24 07:23 | 12.98995 | 80.16837 | 60 ft | 33 kts | 250° |